Time;durP1;ratioP1;P1;durP2;ratioP2;P2;SDS_P1;SDS_P2;PMS_P1;PMS_P2;Temp;Humidity;BMP_temperature;BMP_pressure;BME280_temperature;BME280_humidity;BME280_pressure;Samples;Min_cycle;Max_cycle;Signal;HPM_P1;HPM_P2
2022/09/19 00:00:37;;;;;;;1.23;1.00;;;;;;;;;;5085482;28;20206;-80
2022/09/19 00:03:04;;;;;;;1.10;1.00;;;;;;;;;;5069982;28;20269;-80
2022/09/19 00:05:30;;;;;;;1.40;1.00;;;;;;;;;;5088998;28;21527;-80
2022/09/19 00:07:56;;;;;;;2.33;1.20;;;;;;;;;;5071630;28;20223;-80
2022/09/19 00:10:22;;;;;;;1.47;1.07;;;;;;;;;;5086374;28;20179;-80
2022/09/19 00:12:48;;;;;;;1.70;1.20;;;;;;;;;;5097535;28;20846;-80
2022/09/19 00:15:15;;;;;;;1.33;1.10;;;;;;;;;;5076469;28;20212;-79
2022/09/19 00:17:41;;;;;;;1.83;1.10;;;;;;;;;;5094517;28;20376;-79
2022/09/19 00:20:07;;;;;;;1.10;1.00;;;;;;;;;;5068612;28;20192;-79
2022/09/19 00:22:33;;;;;;;1.73;1.00;;;;;;;;;;5089590;28;20544;-80
2022/09/19 00:24:59;;;;;;;1.20;1.10;;;;;;;;;;5070386;28;20196;-80
2022/09/19 00:27:28;;;;;;;1.30;0.93;;;;;;;;;;5092140;28;20625;-80
2022/09/19 00:29:55;;;;;;;0.80;0.80;;;;;;;;;;5058130;28;20671;-80
2022/09/19 00:32:21;;;;;;;2.03;1.10;;;;;;;;;;5093358;28;20180;-80
2022/09/19 00:34:49;;;;;;;1.43;1.00;;;;;;;;;;5069930;28;20188;-81
2022/09/19 00:37:15;;;;;;;1.30;1.00;;;;;;;;;;5063427;28;20169;-80
2022/09/19 00:39:42;;;;;;;1.27;1.17;;;;;;;;;;5078203;28;20201;-80
2022/09/19 00:42:14;;;;;;;2.60;1.20;;;;;;;;;;5086295;28;20202;-79
2022/09/19 00:44:40;;;;;;;1.33;1.03;;;;;;;;;;5076693;28;20195;-80
2022/09/19 00:47:10;;;;;;;2.03;0.90;;;;;;;;;;5081271;28;20201;-80
2022/09/19 00:49:39;;;;;;;1.20;1.10;;;;;;;;;;5081477;28;20236;-80
2022/09/19 00:52:07;;;;;;;1.10;1.00;;;;;;;;;;5045500;28;20183;-80
2022/09/19 00:54:35;;;;;;;1.87;1.00;;;;;;;;;;5049990;28;20178;-80
2022/09/19 00:57:02;;;;;;;1.20;1.10;;;;;;;;;;5067180;28;20715;-80
2022/09/19 00:59:30;;;;;;;1.67;1.13;;;;;;;;;;5082500;28;20295;-80
2022/09/19 01:01:56;;;;;;;1.10;1.00;;;;;;;;;;5066216;28;20191;-80
2022/09/19 01:04:23;;;;;;;1.23;1.03;;;;;;;;;;5065593;28;20213;-80
2022/09/19 01:06:56;;;;;;;2.03;1.20;;;;;;;;;;5083951;28;20727;-80
2022/09/19 01:09:26;;;;;;;1.40;1.20;;;;;;;;;;5068413;28;20254;-80
2022/09/19 01:12:01;;;;;;;1.70;1.10;;;;;;;;;;5052638;28;20189;-80
2022/09/19 01:14:28;;;;;;;1.40;1.17;;;;;;;;;;5080499;28;20204;-79
2022/09/19 01:17:04;;;;;;;2.30;1.00;;;;;;;;;;5086705;28;20193;-80
2022/09/19 01:19:35;;;;;;;2.33;1.20;;;;;;;;;;5081887;28;20205;-81
2022/09/19 01:22:22;;;;;;;2.07;1.10;;;;;;;;;;5047373;28;20188;-82
2022/09/19 01:24:51;;;;;;;2.20;1.27;;;;;;;;;;5064422;28;20664;-81
2022/09/19 01:27:22;;;;;;;1.93;1.10;;;;;;;;;;5071510;28;20718;-80
2022/09/19 01:29:50;;;;;;;1.87;1.13;;;;;;;;;;5091057;28;20269;-81
2022/09/19 01:32:19;;;;;;;2.80;1.30;;;;;;;;;;5072205;28;20185;-80
2022/09/19 01:34:50;;;;;;;1.20;1.10;;;;;;;;;;5075762;28;20177;-80
2022/09/19 01:37:27;;;;;;;3.30;1.60;;;;;;;;;;5055619;28;20604;-80
2022/09/19 01:39:55;;;;;;;2.70;1.47;;;;;;;;;;5063538;28;20235;-81
2022/09/19 01:42:22;;;;;;;1.83;1.20;;;;;;;;;;5068892;28;20286;-81
2022/09/19 01:44:52;;;;;;;2.30;1.50;;;;;;;;;;5065982;28;20550;-80
2022/09/19 01:47:38;;;;;;;3.77;1.50;;;;;;;;;;5068537;28;20438;-80
2022/09/19 01:50:05;;;;;;;1.87;1.30;;;;;;;;;;5069070;28;20233;-80
2022/09/19 01:52:48;;;;;;;1.53;1.27;;;;;;;;;;5058964;28;20188;-82
2022/09/19 01:55:18;;;;;;;2.07;1.53;;;;;;;;;;5062106;28;20187;-82
2022/09/19 01:58:11;;;;;;;2.23;1.47;;;;;;;;;;5069958;28;20204;-81
2022/09/19 02:00:42;;;;;;;1.80;1.50;;;;;;;;;;5078131;28;20205;-83
2022/09/19 02:03:09;;;;;;;2.30;1.43;;;;;;;;;;5067758;28;20220;-81
2022/09/19 02:05:42;;;;;;;2.87;1.60;;;;;;;;;;5059393;28;20282;-82
2022/09/19 02:08:19;;;;;;;2.90;1.50;;;;;;;;;;5069067;28;20212;-82
2022/09/19 02:10:54;;;;;;;3.47;1.50;;;;;;;;;;5073366;28;20231;-82
2022/09/19 02:13:24;;;;;;;2.60;1.50;;;;;;;;;;5072553;28;20259;-81
2022/09/19 02:16:09;;;;;;;3.10;1.50;;;;;;;;;;5067994;28;20180;-81
2022/09/19 02:18:39;;;;;;;2.03;1.50;;;;;;;;;;5084313;28;20406;-81
2022/09/19 02:21:10;;;;;;;3.07;1.37;;;;;;;;;;5066931;28;20193;-82
2022/09/19 02:23:39;;;;;;;2.17;1.43;;;;;;;;;;5063199;28;20552;-82
2022/09/19 02:26:07;;;;;;;4.33;1.80;;;;;;;;;;5084614;28;20461;-82
2022/09/19 02:28:39;;;;;;;3.17;1.53;;;;;;;;;;5065304;28;20265;-82
2022/09/19 02:31:08;;;;;;;2.43;1.53;;;;;;;;;;5060854;28;20196;-81
2022/09/19 02:33:37;;;;;;;4.53;1.50;;;;;;;;;;5039853;28;20635;-82
2022/09/19 02:36:16;;;;;;;3.20;1.63;;;;;;;;;;5064185;28;20177;-83
2022/09/19 02:39:01;;;;;;;5.97;1.60;;;;;;;;;;5086147;28;20208;-82
2022/09/19 02:42:16;;;;;;;2.13;1.33;;;;;;;;;;5071957;28;20176;-81
2022/09/19 02:44:49;;;;;;;3.03;1.50;;;;;;;;;;5075654;28;20189;-82
2022/09/19 02:47:21;;;;;;;2.43;1.30;;;;;;;;;;5065247;28;20263;-81
2022/09/19 02:49:53;;;;;;;2.43;1.40;;;;;;;;;;5083943;28;20192;-81
2022/09/19 02:52:33;;;;;;;2.33;1.30;;;;;;;;;;5068222;28;20249;-81
2022/09/19 02:55:26;;;;;;;4.97;1.67;;;;;;;;;;5070381;28;20542;-82
2022/09/19 02:57:55;;;;;;;1.73;1.30;;;;;;;;;;5085302;28;20204;-82
2022/09/19 03:00:21;;;;;;;1.90;1.60;;;;;;;;;;5080371;28;20181;-82
2022/09/19 03:02:56;;;;;;;4.33;1.40;;;;;;;;;;5043483;28;20188;-82
2022/09/19 03:05:25;;;;;;;2.30;1.43;;;;;;;;;;5053389;28;20188;-83
2022/09/19 03:07:59;;;;;;;2.33;1.30;;;;;;;;;;5070035;28;20252;-81
2022/09/19 03:10:29;;;;;;;2.00;1.20;;;;;;;;;;5082826;28;20196;-81
2022/09/19 03:13:02;;;;;;;6.40;1.80;;;;;;;;;;5047590;28;20553;-82
2022/09/19 03:15:41;;;;;;;2.87;1.30;;;;;;;;;;5064205;28;20609;-81
2022/09/19 03:18:10;;;;;;;4.43;2.00;;;;;;;;;;5040766;28;20623;-83
2022/09/19 03:20:39;;;;;;;2.93;1.60;;;;;;;;;;5055424;28;20192;-81
2022/09/19 03:23:07;;;;;;;2.30;1.60;;;;;;;;;;5070144;28;20643;-81
2022/09/19 03:25:34;;;;;;;2.73;1.67;;;;;;;;;;5056935;28;20185;-81
2022/09/19 03:28:01;;;;;;;3.83;1.60;;;;;;;;;;5065840;28;20208;-81
2022/09/19 03:30:30;;;;;;;2.40;1.60;;;;;;;;;;5071064;28;20209;-81
2022/09/19 03:32:56;;;;;;;3.17;1.30;;;;;;;;;;5070617;28;20694;-81
2022/09/19 03:35:24;;;;;;;1.77;1.40;;;;;;;;;;5073478;28;20190;-82
2022/09/19 03:37:52;;;;;;;2.30;1.53;;;;;;;;;;5070031;28;20187;-82
2022/09/19 03:40:22;;;;;;;3.53;1.60;;;;;;;;;;5072060;28;20269;-82
2022/09/19 03:42:51;;;;;;;2.87;1.40;;;;;;;;;;5056618;28;20595;-81
2022/09/19 03:45:19;;;;;;;3.83;1.60;;;;;;;;;;5074491;28;20176;-81
2022/09/19 03:47:46;;;;;;;4.13;1.60;;;;;;;;;;5032668;28;20197;-81
2022/09/19 03:50:13;;;;;;;2.77;1.40;;;;;;;;;;5074517;28;20766;-81
2022/09/19 03:52:59;;;;;;;2.63;1.43;;;;;;;;;;5093190;28;20185;-81
2022/09/19 03:55:26;;;;;;;2.17;1.40;;;;;;;;;;5081794;28;20208;-81
2022/09/19 03:57:52;;;;;;;2.40;1.40;;;;;;;;;;5072727;28;20181;-81
2022/09/19 04:00:22;;;;;;;3.60;1.33;;;;;;;;;;5079916;28;20193;-81
2022/09/19 04:02:49;;;;;;;1.57;1.30;;;;;;;;;;5079106;28;20667;-81
2022/09/19 04:05:16;;;;;;;2.30;1.20;;;;;;;;;;5069541;28;20184;-82
2022/09/19 04:07:42;;;;;;;2.45;1.60;;;;;;;;;;5076871;28;20432;-81
2022/09/19 04:10:09;;;;;;;3.03;1.40;;;;;;;;;;5076672;28;20749;-82
2022/09/19 04:12:36;;;;;;;2.83;1.40;;;;;;;;;;5071388;28;20176;-81
2022/09/19 04:15:02;;;;;;;3.63;1.33;;;;;;;;;;5060540;28;20185;-81
2022/09/19 04:17:30;;;;;;;3.87;1.23;;;;;;;;;;5076932;28;20177;-82
2022/09/19 04:20:03;;;;;;;2.57;1.60;;;;;;;;;;5076638;28;20184;-82
2022/09/19 04:22:40;;;;;;;2.77;1.40;;;;;;;;;;5075518;28;20191;-82
2022/09/19 04:25:19;;;;;;;3.40;1.43;;;;;;;;;;5066919;28;20181;-81
2022/09/19 04:28:02;;;;;;;3.57;1.50;;;;;;;;;;5060979;28;20231;-82
2022/09/19 04:30:29;;;;;;;2.60;1.47;;;;;;;;;;5073374;28;20193;-82
2022/09/19 04:33:00;;;;;;;4.20;1.30;;;;;;;;;;5074510;28;20267;-82
2022/09/19 04:35:27;;;;;;;4.53;1.30;;;;;;;;;;5071656;28;20178;-82
2022/09/19 04:37:54;;;;;;;2.87;1.40;;;;;;;;;;5070035;28;20200;-81
2022/09/19 04:40:21;;;;;;;6.77;1.60;;;;;;;;;;5066290;28;20651;-82
2022/09/19 04:42:48;;;;;;;3.43;1.60;;;;;;;;;;5060140;28;20181;-81
2022/09/19 04:45:20;;;;;;;2.87;1.57;;;;;;;;;;5060685;28;20165;-81
2022/09/19 04:48:05;;;;;;;3.08;1.48;;;;;;;;;;5058006;28;20522;-82
2022/09/19 04:50:36;;;;;;;4.50;1.60;;;;;;;;;;5071754;28;20188;-82
2022/09/19 04:53:02;;;;;;;4.43;1.73;;;;;;;;;;5074865;28;20187;-82
2022/09/19 04:55:29;;;;;;;3.20;1.30;;;;;;;;;;5078579;28;20181;-80
2022/09/19 04:57:56;;;;;;;5.13;1.50;;;;;;;;;;5038990;28;20211;-81
2022/09/19 05:00:39;;;;;;;4.13;1.80;;;;;;;;;;5067407;28;20683;-81
2022/09/19 05:03:15;;;;;;;4.87;1.60;;;;;;;;;;5065197;28;20723;-81
2022/09/19 05:05:44;;;;;;;2.77;1.37;;;;;;;;;;5051537;28;20173;-80
2022/09/19 05:08:15;;;;;;;1.87;1.30;;;;;;;;;;5067897;28;20325;-80
2022/09/19 05:10:42;;;;;;;3.23;1.30;;;;;;;;;;5068381;28;20180;-80
2022/09/19 05:13:08;;;;;;;1.57;1.30;;;;;;;;;;5039605;28;20192;-81
2022/09/19 05:15:36;;;;;;;2.00;1.30;;;;;;;;;;5068292;28;20192;-80
2022/09/19 05:18:02;;;;;;;3.37;1.30;;;;;;;;;;5055016;28;20200;-81
2022/09/19 05:20:29;;;;;;;3.67;1.70;;;;;;;;;;5066394;28;20211;-81
2022/09/19 05:22:59;;;;;;;4.43;1.70;;;;;;;;;;5072212;28;20181;-81
2022/09/19 05:25:29;;;;;;;4.80;1.60;;;;;;;;;;5052015;28;20651;-80
2022/09/19 05:28:05;;;;;;;2.90;1.50;;;;;;;;;;5056173;28;20698;-80
2022/09/19 05:30:36;;;;;;;3.07;1.67;;;;;;;;;;5065246;28;20180;-80
2022/09/19 05:33:03;;;;;;;4.60;1.63;;;;;;;;;;5048409;28;20995;-81
2022/09/19 05:35:40;;;;;;;4.63;1.53;;;;;;;;;;5070660;28;20554;-80
2022/09/19 05:38:32;;;;;;;5.50;1.60;;;;;;;;;;5086052;28;20209;-80
2022/09/19 05:41:08;;;;;;;4.60;1.80;;;;;;;;;;5056052;28;20187;-80
2022/09/19 05:43:40;;;;;;;2.40;1.40;;;;;;;;;;5089816;28;20807;-78
2022/09/19 05:46:07;;;;;;;4.83;1.70;;;;;;;;;;5071192;28;20263;-76
2022/09/19 05:48:37;;;;;;;3.17;1.60;;;;;;;;;;5070830;28;20283;-79
2022/09/19 05:51:04;;;;;;;4.97;1.70;;;;;;;;;;5060232;28;20263;-78
2022/09/19 05:56:40;;;;;;;4.47;1.73;;;;;;;;;;5053986;28;20187;-78
2022/09/19 05:59:08;;;;;;;3.80;1.60;;;;;;;;;;5070111;28;20264;-76
2022/09/19 06:01:37;;;;;;;4.13;1.67;;;;;;;;;;5067965;28;20180;-75
2022/09/19 06:04:04;;;;;;;5.30;1.73;;;;;;;;;;5065233;28;20221;-78
2022/09/19 06:06:36;;;;;;;7.47;1.83;;;;;;;;;;5045392;28;20236;-80
2022/09/19 06:09:03;;;;;;;3.77;1.57;;;;;;;;;;5062575;28;20254;-77
2022/09/19 06:11:34;;;;;;;4.40;1.70;;;;;;;;;;5060211;28;20827;-78
2022/09/19 06:14:15;;;;;;;5.87;1.73;;;;;;;;;;5044927;28;20365;-77
2022/09/19 06:16:44;;;;;;;4.40;1.77;;;;;;;;;;5057491;28;20184;-77
2022/09/19 06:19:34;;;;;;;5.47;1.90;;;;;;;;;;5041885;28;20644;-78
2022/09/19 06:22:30;;;;;;;5.70;2.27;;;;;;;;;;5053353;28;20586;-77
2022/09/19 06:25:01;;;;;;;4.93;2.07;;;;;;;;;;5064171;28;20211;-77
2022/09/19 06:27:29;;;;;;;5.10;1.93;;;;;;;;;;5062885;28;20201;-78
2022/09/19 06:29:55;;;;;;;6.20;2.10;;;;;;;;;;5058380;28;20556;-78
2022/09/19 06:32:22;;;;;;;7.20;2.07;;;;;;;;;;5074765;28;20189;-77
2022/09/19 06:34:59;;;;;;;5.30;1.87;;;;;;;;;;5062880;28;20177;-78
2022/09/19 06:37:30;;;;;;;6.33;2.10;;;;;;;;;;5066292;28;20259;-77
2022/09/19 06:39:57;;;;;;;4.27;1.77;;;;;;;;;;5073132;28;20203;-78
2022/09/19 06:42:58;;;;;;;8.13;2.20;;;;;;;;;;5032024;28;20192;-78
2022/09/19 06:45:40;;;;;;;7.77;2.03;;;;;;;;;;5056348;28;20176;-76
2022/09/19 06:48:25;;;;;;;5.17;1.90;;;;;;;;;;5074582;28;20785;-78
2022/09/19 06:50:55;;;;;;;7.70;2.47;;;;;;;;;;5060761;28;20215;-77
2022/09/19 06:53:22;;;;;;;6.47;2.33;;;;;;;;;;5058351;28;20184;-78
2022/09/19 06:55:53;;;;;;;4.93;2.10;;;;;;;;;;5042090;28;20175;-78
2022/09/19 06:58:23;;;;;;;8.57;2.77;;;;;;;;;;5043869;28;20215;-77
2022/09/19 07:00:51;;;;;;;4.90;2.40;;;;;;;;;;5059131;28;20659;-77
2022/09/19 07:03:19;;;;;;;5.77;2.10;;;;;;;;;;5062720;28;20184;-78
2022/09/19 07:05:53;;;;;;;6.60;2.13;;;;;;;;;;5061576;28;20259;-77
2022/09/19 07:08:21;;;;;;;5.97;2.40;;;;;;;;;;5064532;28;20230;-78
2022/09/19 07:10:49;;;;;;;6.17;2.20;;;;;;;;;;5061906;28;20180;-82
2022/09/19 07:13:16;;;;;;;9.47;2.43;;;;;;;;;;5062267;28;20184;-77
2022/09/19 07:15:45;;;;;;;8.97;2.67;;;;;;;;;;5065614;28;20221;-78
2022/09/19 07:18:12;;;;;;;5.77;2.57;;;;;;;;;;5049282;28;20212;-79
2022/09/19 07:20:39;;;;;;;6.87;2.97;;;;;;;;;;5047994;28;20253;-77
2022/09/19 07:23:28;;;;;;;5.10;2.40;;;;;;;;;;5080524;28;20260;-77
2022/09/19 07:26:22;;;;;;;9.57;2.90;;;;;;;;;;5037654;28;20727;-78
2022/09/19 07:28:48;;;;;;;8.90;2.50;;;;;;;;;;5052298;28;20197;-77
2022/09/19 07:31:14;;;;;;;9.50;2.80;;;;;;;;;;5059651;28;20221;-78
2022/09/19 07:33:41;;;;;;;7.07;2.10;;;;;;;;;;5062451;28;20693;-77
2022/09/19 07:36:10;;;;;;;10.03;2.60;;;;;;;;;;5064600;28;20180;-77
2022/09/19 07:38:36;;;;;;;6.30;2.30;;;;;;;;;;5049739;28;20219;-77
2022/09/19 07:41:31;;;;;;;10.43;2.60;;;;;;;;;;4998044;28;20294;-78
2022/09/19 07:44:10;;;;;;;7.53;2.50;;;;;;;;;;5060855;28;20181;-77
2022/09/19 07:49:54;;;;;;;6.10;2.23;;;;;;;;;;5061575;28;20201;-78
2022/09/19 07:52:35;;;;;;;6.70;2.33;;;;;;;;;;5049777;28;20180;-78
2022/09/19 07:55:02;;;;;;;6.53;2.40;;;;;;;;;;5064761;28;20173;-78
2022/09/19 07:57:30;;;;;;;9.40;2.60;;;;;;;;;;5061371;28;20185;-78
2022/09/19 07:59:56;;;;;;;8.00;2.30;;;;;;;;;;5065067;28;20869;-78
2022/09/19 08:02:23;;;;;;;6.53;2.30;;;;;;;;;;5061383;28;20239;-78
2022/09/19 08:04:51;;;;;;;5.70;1.90;;;;;;;;;;5060329;28;21623;-78
2022/09/19 08:07:19;;;;;;;6.53;2.00;;;;;;;;;;5059556;28;20200;-78
2022/09/19 08:09:46;;;;;;;6.40;2.10;;;;;;;;;;5071914;28;20211;-77
2022/09/19 08:12:16;;;;;;;5.53;2.20;;;;;;;;;;5063736;28;20230;-78
2022/09/19 08:14:47;;;;;;;7.83;2.40;;;;;;;;;;5061389;28;20173;-77
2022/09/19 08:17:14;;;;;;;4.33;2.00;;;;;;;;;;5062573;28;20181;-78
2022/09/19 08:19:43;;;;;;;7.03;2.17;;;;;;;;;;5062000;28;20207;-78
2022/09/19 08:22:10;;;;;;;5.20;2.07;;;;;;;;;;5058876;28;20174;-78
2022/09/19 08:24:43;;;;;;;7.60;2.20;;;;;;;;;;5058237;28;20670;-78
2022/09/19 08:27:14;;;;;;;6.63;2.10;;;;;;;;;;5059751;28;20247;-81
2022/09/19 08:29:41;;;;;;;5.53;1.80;;;;;;;;;;5061848;28;20196;-77
2022/09/19 08:32:11;;;;;;;5.40;1.90;;;;;;;;;;5060907;28;20165;-78
2022/09/19 08:34:38;;;;;;;5.27;1.90;;;;;;;;;;5065151;28;20185;-78
2022/09/19 08:37:05;;;;;;;8.13;2.40;;;;;;;;;;5065539;28;20651;-78
2022/09/19 08:39:34;;;;;;;3.87;1.87;;;;;;;;;;5063765;28;20208;-78
2022/09/19 08:42:06;;;;;;;6.83;2.00;;;;;;;;;;5064338;28;20683;-78
2022/09/19 08:44:43;;;;;;;5.23;1.73;;;;;;;;;;5050144;28;20172;-76
2022/09/19 08:47:12;;;;;;;5.80;2.10;;;;;;;;;;5079837;28;20192;-76
2022/09/19 08:49:43;;;;;;;6.53;2.00;;;;;;;;;;5059867;28;20275;-76
2022/09/19 08:52:18;;;;;;;6.70;1.97;;;;;;;;;;5043741;28;20181;-76
2022/09/19 08:54:46;;;;;;;5.70;1.90;;;;;;;;;;5062250;28;20193;-76
2022/09/19 08:57:26;;;;;;;5.20;2.00;;;;;;;;;;5048396;28;20275;-75
2022/09/19 08:59:57;;;;;;;8.90;2.10;;;;;;;;;;5055568;28;20222;-76
2022/09/19 09:02:47;;;;;;;5.87;2.07;;;;;;;;;;5062234;28;20178;-75
2022/09/19 09:05:14;;;;;;;5.03;1.77;;;;;;;;;;5065870;28;20260;-75
2022/09/19 09:07:40;;;;;;;6.67;2.10;;;;;;;;;;5064613;28;20192;-78
2022/09/19 09:10:43;;;;;;;9.03;2.50;;;;;;;;;;5059272;28;20181;-76
2022/09/19 09:13:33;;;;;;;5.83;2.20;;;;;;;;;;5061176;28;20226;-76
2022/09/19 09:16:12;;;;;;;5.27;2.13;;;;;;;;;;5064631;28;20168;-76
2022/09/19 09:19:02;;;;;;;4.63;1.73;;;;;;;;;;5064164;28;20291;-76
2022/09/19 09:21:54;;;;;;;3.87;1.97;;;;;;;;;;5013719;28;20247;-76
2022/09/19 09:24:28;;;;;;;5.50;2.00;;;;;;;;;;5044432;28;20189;-76
2022/09/19 09:27:14;;;;;;;4.00;1.93;;;;;;;;;;5061465;28;20231;-76
2022/09/19 09:29:53;;;;;;;5.90;2.00;;;;;;;;;;5065720;28;20238;-79
2022/09/19 09:32:33;;;;;;;5.33;2.20;;;;;;;;;;5036050;28;20774;-76
2022/09/19 09:35:03;;;;;;;4.37;2.23;;;;;;;;;;5063501;28;20177;-78
2022/09/19 09:37:40;;;;;;;7.73;2.47;;;;;;;;;;5061977;28;20667;-78
2022/09/19 09:41:44;;;;;;;9.03;2.33;;;;;;;;;;5065281;28;20188;-77
2022/09/19 09:43:07;;;;;;;5.00;2.10;;;;;;;;;;5063732;28;20587;-78
2022/09/19 09:45:49;;;;;;;6.20;2.40;;;;;;;;;;5066917;28;20188;-78
2022/09/19 09:48:35;;;;;;;3.70;2.10;;;;;;;;;;5060753;28;20221;-77
2022/09/19 09:51:05;;;;;;;6.30;2.17;;;;;;;;;;5047830;28;20180;-78
2022/09/19 09:53:37;;;;;;;5.90;2.20;;;;;;;;;;5079317;28;20195;-78
2022/09/19 09:56:16;;;;;;;4.40;2.30;;;;;;;;;;5063433;28;20223;-78
2022/09/19 09:58:54;;;;;;;6.13;2.40;;;;;;;;;;5059937;28;20213;-77
2022/09/19 10:04:22;;;;;;;5.80;2.10;;;;;;;;;;5082731;28;20725;-78
2022/09/19 10:06:53;;;;;;;4.73;2.00;;;;;;;;;;5062989;28;20206;-78
2022/09/19 10:09:34;;;;;;;4.00;2.10;;;;;;;;;;5066443;28;20699;-78
2022/09/19 10:12:07;;;;;;;6.90;2.30;;;;;;;;;;5040591;28;20203;-78
2022/09/19 10:14:37;;;;;;;4.07;2.30;;;;;;;;;;5060692;28;20161;-78
2022/09/19 10:17:19;;;;;;;4.87;2.40;;;;;;;;;;5063718;28;20216;-77
2022/09/19 10:19:47;;;;;;;5.70;2.10;;;;;;;;;;5064888;28;20201;-78
2022/09/19 10:22:15;;;;;;;6.13;2.47;;;;;;;;;;5078214;28;20185;-78
2022/09/19 10:24:55;;;;;;;7.10;2.20;;;;;;;;;;5079679;28;21079;-78
2022/09/19 10:27:26;;;;;;;3.97;2.10;;;;;;;;;;5062097;28;20239;-78
2022/09/19 10:30:12;;;;;;;3.60;2.00;;;;;;;;;;5061089;28;20212;-77
2022/09/19 10:32:39;;;;;;;5.13;2.00;;;;;;;;;;5059748;28;20184;-79
2022/09/19 10:35:27;;;;;;;6.33;2.20;;;;;;;;;;5077968;28;20188;-76
2022/09/19 10:37:59;;;;;;;5.37;2.20;;;;;;;;;;5064151;28;20634;-77
2022/09/19 10:40:26;;;;;;;9.47;2.23;;;;;;;;;;5064269;28;20184;-78
2022/09/19 10:42:55;;;;;;;8.27;2.30;;;;;;;;;;5058971;28;20708;-79
2022/09/19 10:45:25;;;;;;;4.07;2.00;;;;;;;;;;5064593;28;20333;-79
2022/09/19 10:47:55;;;;;;;4.00;1.87;;;;;;;;;;5058802;28;20212;-80
2022/09/19 10:50:23;;;;;;;4.33;1.90;;;;;;;;;;5062815;28;20188;-79
2022/09/19 10:53:03;;;;;;;4.17;1.73;;;;;;;;;;5049974;28;20278;-80
2022/09/19 10:55:33;;;;;;;4.70;1.70;;;;;;;;;;5046554;28;20956;-76
2022/09/19 10:58:05;;;;;;;7.17;1.67;;;;;;;;;;5089111;28;20727;-80
2022/09/19 11:00:51;;;;;;;5.20;1.83;;;;;;;;;;5058498;28;20188;-76
2022/09/19 11:03:23;;;;;;;6.50;1.70;;;;;;;;;;5067594;28;20294;-77
2022/09/19 11:06:05;;;;;;;4.83;2.00;;;;;;;;;;5058611;28;20215;-79
2022/09/19 11:08:37;;;;;;;4.67;1.90;;;;;;;;;;5041957;28;20356;-76
2022/09/19 11:11:19;;;;;;;6.90;2.50;;;;;;;;;;5061303;28;20559;-76
2022/09/19 11:13:46;;;;;;;2.40;1.50;;;;;;;;;;5057780;28;20206;-76
2022/09/19 11:16:19;;;;;;;3.43;1.60;;;;;;;;;;5076700;28;20238;-76
2022/09/19 11:19:06;;;;;;;4.43;1.60;;;;;;;;;;5054844;28;20204;-75
2022/09/19 11:21:44;;;;;;;4.33;1.60;;;;;;;;;;5060208;28;20184;-76
2022/09/19 11:24:26;;;;;;;3.03;1.70;;;;;;;;;;5057199;28;20732;-76
2022/09/19 11:27:02;;;;;;;7.60;1.80;;;;;;;;;;5056842;28;20831;-76
2022/09/19 11:29:38;;;;;;;3.83;1.60;;;;;;;;;;5056837;28;20196;-77
2022/09/19 11:32:06;;;;;;;5.67;1.70;;;;;;;;;;5058357;28;20191;-77
2022/09/19 11:34:58;;;;;;;5.27;1.87;;;;;;;;;;5060071;28;20203;-77
2022/09/19 11:37:44;;;;;;;2.97;1.40;;;;;;;;;;5059627;28;20208;-81
2022/09/19 11:40:33;;;;;;;5.63;1.73;;;;;;;;;;5049736;28;20192;-77
2022/09/19 11:43:12;;;;;;;4.30;1.60;;;;;;;;;;5059951;28;20234;-80
2022/09/19 11:45:54;;;;;;;5.43;1.67;;;;;;;;;;5066820;28;20597;-76
2022/09/19 11:48:40;;;;;;;4.00;1.50;;;;;;;;;;5057013;28;20200;-78
2022/09/19 11:51:11;;;;;;;5.07;1.77;;;;;;;;;;5057353;28;20189;-78
2022/09/19 11:53:57;;;;;;;7.00;1.80;;;;;;;;;;5047927;28;20177;-77
2022/09/19 11:56:59;;;;;;;6.20;1.87;;;;;;;;;;5058291;28;20180;-76
2022/09/19 11:59:30;;;;;;;6.50;1.60;;;;;;;;;;5049353;28;20250;-77
2022/09/19 12:02:20;;;;;;;5.93;1.77;;;;;;;;;;5062753;28;20211;-77
2022/09/19 12:05:03;;;;;;;6.50;1.73;;;;;;;;;;5057619;28;20181;-77
2022/09/19 12:07:38;;;;;;;5.83;1.67;;;;;;;;;;5064253;28;20197;-77
2022/09/19 12:10:22;;;;;;;4.43;1.60;;;;;;;;;;5058779;28;20671;-77
2022/09/19 12:12:54;;;;;;;5.57;1.93;;;;;;;;;;5063416;28;20941;-77
2022/09/19 12:15:34;;;;;;;4.37;1.70;;;;;;;;;;5061975;28;20169;-77
2022/09/19 12:18:10;;;;;;;4.37;1.40;;;;;;;;;;5061151;28;20581;-77
2022/09/19 12:20:44;;;;;;;4.07;1.50;;;;;;;;;;5064011;28;20728;-77
2022/09/19 12:26:11;;;;;;;3.83;1.57;;;;;;;;;;5075401;28;20214;-77
2022/09/19 12:28:41;;;;;;;5.00;1.70;;;;;;;;;;5064402;28;20216;-77
2022/09/19 12:31:10;;;;;;;5.23;1.60;;;;;;;;;;5076520;28;20192;-77
2022/09/19 12:33:37;;;;;;;5.57;1.70;;;;;;;;;;5047246;28;20702;-77
2022/09/19 12:36:07;;;;;;;3.97;1.60;;;;;;;;;;5067215;28;20260;-77
2022/09/19 12:38:39;;;;;;;4.03;1.60;;;;;;;;;;5077175;28;20204;-77
2022/09/19 12:41:24;;;;;;;4.40;1.43;;;;;;;;;;5052179;28;20207;-79
2022/09/19 12:44:02;;;;;;;5.57;1.70;;;;;;;;;;5049712;28;20228;-76
2022/09/19 12:46:29;;;;;;;5.40;1.67;;;;;;;;;;5060426;28;20176;-76
2022/09/19 12:49:03;;;;;;;4.30;1.47;;;;;;;;;;5063989;28;20201;-77
2022/09/19 12:51:53;;;;;;;4.13;1.23;;;;;;;;;;5086248;28;20188;-76
2022/09/19 12:54:23;;;;;;;2.90;1.20;;;;;;;;;;5084136;28;20189;-76
2022/09/19 12:56:54;;;;;;;4.77;1.10;;;;;;;;;;5081325;28;20189;-76
2022/09/19 12:59:24;;;;;;;3.27;1.30;;;;;;;;;;5082812;28;20309;-77
2022/09/19 13:01:58;;;;;;;6.43;1.47;;;;;;;;;;5077366;28;20172;-76
2022/09/19 13:04:30;;;;;;;3.90;1.47;;;;;;;;;;5080090;28;20267;-76
2022/09/19 13:07:03;;;;;;;4.23;1.20;;;;;;;;;;5077632;28;20201;-77
2022/09/19 13:09:36;;;;;;;3.50;1.13;;;;;;;;;;5057712;28;20727;-76
2022/09/19 13:12:21;;;;;;;2.43;1.10;;;;;;;;;;5063413;28;20169;-77
2022/09/19 13:14:50;;;;;;;4.23;1.10;;;;;;;;;;5080261;28;20184;-75
2022/09/19 13:25:35;;;;;;;1.53;0.80;;;;;;;;;;5077519;28;20218;-75
2022/09/19 13:28:19;;;;;;;1.47;1.00;;;;;;;;;;5077620;28;20196;-76
2022/09/19 13:30:50;;;;;;;2.03;0.90;;;;;;;;;;5077508;28;20187;-76
2022/09/19 13:33:21;;;;;;;1.23;0.90;;;;;;;;;;5075017;28;20631;-76
2022/09/19 13:35:48;;;;;;;1.97;1.07;;;;;;;;;;5075601;28;20781;-76
2022/09/19 13:38:26;;;;;;;1.97;1.00;;;;;;;;;;5075716;28;20762;-76
2022/09/19 13:40:57;;;;;;;3.67;1.13;;;;;;;;;;5060328;28;20192;-76
2022/09/19 13:43:30;;;;;;;2.67;1.10;;;;;;;;;;5077563;28;20684;-76
2022/09/19 13:45:56;;;;;;;3.53;1.30;;;;;;;;;;5055642;28;20595;-76
2022/09/19 13:48:25;;;;;;;2.73;1.30;;;;;;;;;;5075076;28;20235;-75
2022/09/19 13:51:04;;;;;;;2.80;1.23;;;;;;;;;;5075967;28;20181;-76
2022/09/19 13:53:46;;;;;;;3.10;1.10;;;;;;;;;;5072742;28;20191;-76
2022/09/19 13:56:32;;;;;;;5.13;1.70;;;;;;;;;;5072644;28;20572;-76
2022/09/19 13:59:07;;;;;;;5.27;1.40;;;;;;;;;;5075553;28;20303;-76
2022/09/19 14:01:37;;;;;;;3.77;1.73;;;;;;;;;;5075182;28;20249;-76
2022/09/19 14:06:59;;;;;;;3.73;1.30;;;;;;;;;;5075903;28;20204;-75
2022/09/19 14:09:30;;;;;;;2.27;1.20;;;;;;;;;;5076022;28;20932;-75
2022/09/19 14:11:58;;;;;;;3.23;1.40;;;;;;;;;;5075948;28;20736;-75
2022/09/19 14:14:40;;;;;;;1.70;1.13;;;;;;;;;;5040599;28;20215;-75
2022/09/19 14:17:19;;;;;;;1.20;0.90;;;;;;;;;;5075695;28;20191;-75
2022/09/19 14:19:47;;;;;;;1.60;0.90;;;;;;;;;;5074669;28;20207;-75
2022/09/19 14:22:37;;;;;;;1.70;0.90;;;;;;;;;;5076759;28;20187;-78
2022/09/19 14:25:20;;;;;;;1.83;0.90;;;;;;;;;;5076933;28;20268;-83
2022/09/19 14:27:58;;;;;;;1.23;0.90;;;;;;;;;;5042327;28;20219;-79
2022/09/19 14:30:37;;;;;;;3.63;0.93;;;;;;;;;;5059137;28;20265;-75
2022/09/19 14:33:36;;;;;;;1.63;0.80;;;;;;;;;;5076733;28;20173;-77
2022/09/19 14:36:13;;;;;;;2.83;1.40;;;;;;;;;;5025996;28;20279;-76
2022/09/19 14:38:58;;;;;;;1.63;0.90;;;;;;;;;;5074011;28;20207;-75
2022/09/19 14:41:48;;;;;;;2.33;0.83;;;;;;;;;;5078575;28;20184;-75
2022/09/19 14:44:17;;;;;;;1.87;1.00;;;;;;;;;;5013238;28;20557;-75
2022/09/19 14:46:55;;;;;;;3.30;1.43;;;;;;;;;;5058560;28;20292;-76
2022/09/19 14:49:27;;;;;;;1.27;1.00;;;;;;;;;;5077787;28;20197;-76
2022/09/19 14:52:07;;;;;;;2.00;1.20;;;;;;;;;;5079360;28;20190;-75
2022/09/19 14:54:40;;;;;;;2.30;0.80;;;;;;;;;;5078333;28;20173;-75
2022/09/19 14:57:15;;;;;;;1.80;0.90;;;;;;;;;;5079437;28;20671;-76
2022/09/19 14:59:41;;;;;;;3.00;1.20;;;;;;;;;;5078051;28;20207;-76
2022/09/19 15:02:15;;;;;;;3.77;1.20;;;;;;;;;;5077019;28;20182;-76
2022/09/19 15:04:41;;;;;;;3.07;0.90;;;;;;;;;;5084755;28;20730;-76
2022/09/19 15:07:09;;;;;;;3.50;0.90;;;;;;;;;;5077575;28;20204;-76
2022/09/19 15:09:36;;;;;;;4.47;0.90;;;;;;;;;;5078328;28;20204;-76
2022/09/19 15:12:12;;;;;;;1.03;0.80;;;;;;;;;;5078829;28;20207;-75
2022/09/19 15:14:42;;;;;;;2.73;1.07;;;;;;;;;;5079316;28;20188;-75
2022/09/19 15:17:10;;;;;;;1.70;0.70;;;;;;;;;;5078620;28;20191;-75
2022/09/19 15:19:44;;;;;;;1.73;0.90;;;;;;;;;;5078604;28;20204;-76
2022/09/19 15:22:23;;;;;;;2.23;0.90;;;;;;;;;;5076034;28;20571;-75
2022/09/19 15:24:52;;;;;;;2.43;1.00;;;;;;;;;;5080693;28;20265;-76
2022/09/19 15:27:20;;;;;;;2.47;1.10;;;;;;;;;;5078188;28;20200;-75
2022/09/19 15:29:49;;;;;;;1.33;0.90;;;;;;;;;;5083004;28;20197;-75
2022/09/19 15:32:17;;;;;;;2.80;1.20;;;;;;;;;;5082413;28;20694;-75
2022/09/19 15:34:49;;;;;;;2.13;1.10;;;;;;;;;;5083310;28;20177;-75
2022/09/19 15:37:18;;;;;;;3.27;1.10;;;;;;;;;;5081499;28;20841;-75
2022/09/19 15:39:45;;;;;;;6.13;1.20;;;;;;;;;;5064849;28;20292;-75
2022/09/19 15:42:12;;;;;;;9.00;2.80;;;;;;;;;;5081853;28;20603;-75